createdAt,value
2023-02-25T00:01:32.675Z,2.871399
2023-02-25T00:04:57.932Z,2.921753
2023-02-25T00:08:23.177Z,2.921753
2023-02-25T00:11:48.428Z,2.901611
2023-02-25T00:15:13.646Z,2.740479
2023-02-25T00:18:38.878Z,2.599487
2023-02-25T00:22:04.105Z,2.609558
2023-02-25T00:25:29.385Z,2.6297
2023-02-25T00:28:54.635Z,2.518921
2023-02-25T00:32:20.131Z,2.418213
2023-02-25T00:35:45.102Z,2.408142
2023-02-25T00:39:10.346Z,2.418213
2023-02-25T00:42:35.611Z,2.267151
2023-02-25T00:46:00.927Z,2.277222
2023-02-25T00:49:31.960Z,2.357788
2023-02-25T00:52:51.377Z,2.37793
2023-02-25T00:56:16.620Z,2.458496
2023-02-25T00:59:41.872Z,2.428284
2023-02-25T01:03:07.374Z,2.357788
2023-02-25T01:06:32.389Z,2.307434
2023-02-25T01:09:57.649Z,2.226868
2023-02-25T01:13:22.862Z,2.347717
2023-02-25T01:16:48.120Z,2.408142
2023-02-25T01:20:13.381Z,2.478638
2023-02-25T01:23:38.597Z,2.488708
2023-02-25T01:27:03.841Z,2.408142
2023-02-25T01:30:29.147Z,2.458496
2023-02-25T01:33:54.388Z,2.458496
2023-02-25T01:37:19.716Z,2.528992
2023-02-25T01:40:44.908Z,2.478638
2023-02-25T01:44:10.183Z,2.518921
2023-02-25T01:47:35.440Z,2.559204
2023-02-25T01:51:00.702Z,2.528992
2023-02-25T01:54:25.995Z,2.6297
2023-02-25T01:57:51.213Z,2.418213
2023-02-25T02:01:16.483Z,2.478638
2023-02-25T02:04:41.720Z,2.307434
2023-02-25T02:08:06.975Z,2.297363
2023-02-25T02:11:32.240Z,2.337646
2023-02-25T02:14:57.466Z,2.277222
2023-02-25T02:18:22.670Z,2.116089
2023-02-25T02:21:47.921Z,2.085876
2023-02-25T02:25:13.227Z,2.196655
2023-02-25T02:28:38.494Z,2.347717
2023-02-25T02:32:03.935Z,2.347717
2023-02-25T02:35:28.971Z,2.357788
2023-02-25T02:38:54.228Z,2.337646
2023-02-25T02:42:19.484Z,2.337646
2023-02-25T02:45:44.783Z,2.458496
2023-02-25T02:49:09.977Z,2.428284
2023-02-25T02:52:35.228Z,2.428284
2023-02-25T02:56:00.499Z,2.478638
2023-02-25T02:59:25.798Z,2.528992
2023-02-25T03:02:51.005Z,2.518921
2023-02-25T03:06:16.239Z,2.388
2023-02-25T03:09:41.463Z,2.388
2023-02-25T03:13:06.709Z,2.428284
2023-02-25T03:16:32.001Z,2.458496
2023-02-25T03:19:57.225Z,2.428284
2023-02-25T03:23:22.448Z,2.528992
2023-02-25T03:26:47.715Z,2.599487
2023-02-25T03:30:12.996Z,2.669983
2023-02-25T03:33:38.190Z,2.669983
2023-02-25T03:37:03.465Z,2.609558
2023-02-25T03:40:28.653Z,2.559204
2023-02-25T03:43:53.903Z,2.478638
2023-02-25T03:47:19.274Z,2.559204
2023-02-25T03:50:44.404Z,2.569275
2023-02-25T03:54:09.652Z,2.609558
2023-02-25T03:57:34.917Z,2.428284
2023-02-25T04:01:00.696Z,2.347717
2023-02-25T04:04:25.983Z,2.408142
2023-02-25T04:07:51.201Z,2.267151
2023-02-25T04:11:16.494Z,2.277222
2023-02-25T04:14:41.699Z,2.297363
2023-02-25T04:18:06.962Z,2.357788
2023-02-25T04:21:32.238Z,2.408142
2023-02-25T04:24:57.488Z,2.347717
2023-02-25T04:28:22.830Z,2.337646
2023-02-25T04:31:48.162Z,2.428284
2023-02-25T04:35:13.171Z,2.418213
2023-02-25T04:38:38.418Z,2.408142
2023-02-25T04:42:03.680Z,2.408142
2023-02-25T04:45:28.964Z,2.357788
2023-02-25T04:48:54.161Z,2.307434
2023-02-25T04:52:19.406Z,2.408142
2023-02-25T04:55:44.669Z,2.347717
2023-02-25T04:59:09.896Z,2.347717
2023-02-25T05:02:35.156Z,2.357788
2023-02-25T05:06:00.401Z,2.337646
2023-02-25T05:09:25.625Z,2.196655
2023-02-25T05:12:50.840Z,2.206726
2023-02-25T05:16:16.136Z,2.176514
2023-02-25T05:19:41.323Z,2.156372
2023-02-25T05:23:06.548Z,2.176514
2023-02-25T05:26:31.776Z,2.277222
2023-02-25T05:29:57.063Z,2.236938
2023-02-25T05:33:22.295Z,2.277222
2023-02-25T05:36:47.558Z,2.267151
2023-02-25T05:40:12.741Z,2.267151
2023-02-25T05:43:37.983Z,2.428284
2023-02-25T05:47:03.261Z,2.428284
2023-02-25T05:50:28.489Z,2.347717
2023-02-25T05:53:53.739Z,2.408142
2023-02-25T05:57:18.937Z,2.37793
2023-02-25T06:00:44.176Z,2.307434
2023-02-25T06:04:09.417Z,2.337646
2023-02-25T06:07:34.668Z,2.408142
2023-02-25T06:10:59.910Z,2.337646
2023-02-25T06:14:25.162Z,2.357788
2023-02-25T06:17:50.399Z,2.297363
2023-02-25T06:21:15.622Z,2.206726
2023-02-25T06:24:40.872Z,2.247009
2023-02-25T06:28:06.120Z,2.176514
2023-02-25T06:31:31.371Z,2.176514
2023-02-25T06:34:56.684Z,2.236938
2023-02-25T06:38:22.068Z,2.156372
2023-02-25T06:41:47.352Z,2.065735
2023-02-25T06:45:12.687Z,2.055664
2023-02-25T06:48:37.930Z,1.914673
2023-02-25T06:52:03.202Z,1.703186
2023-02-25T06:55:28.423Z,1.662903
2023-02-25T06:58:53.748Z,1.662903
2023-02-25T07:02:19.031Z,1.693115
2023-02-25T07:05:44.317Z,1.733398
2023-02-25T07:09:09.574Z,1.793823
2023-02-25T07:12:34.854Z,1.864319
2023-02-25T07:16:00.261Z,1.834106
2023-02-25T07:19:26.239Z,1.864319
2023-02-25T07:22:51.512Z,1.934814
2023-02-25T07:26:16.786Z,1.954956
2023-02-25T07:29:42.105Z,2.015381
2023-02-25T07:33:07.521Z,1.985168
2023-02-25T07:36:32.865Z,1.864319
2023-02-25T07:39:58.222Z,1.813965
2023-02-25T07:43:23.479Z,1.803894
2023-02-25T07:46:48.704Z,1.87439
2023-02-25T07:50:13.959Z,1.87439
2023-02-25T07:53:39.704Z,1.954956
2023-02-25T07:57:06.778Z,2.156372
2023-02-25T08:00:32.967Z,2.045593
2023-02-25T08:03:58.283Z,2.206726
2023-02-25T08:07:23.461Z,2.196655
2023-02-25T08:10:49.273Z,2.297363
2023-02-25T08:14:14.473Z,2.388
2023-02-25T08:17:39.719Z,2.428284
2023-02-25T08:21:04.971Z,2.357788
2023-02-25T08:24:30.248Z,2.428284
2023-02-25T08:27:55.507Z,2.418213
2023-02-25T08:31:20.815Z,2.428284
2023-02-25T08:34:48.471Z,2.488708
2023-02-25T08:38:11.194Z,2.478638
2023-02-25T08:41:36.459Z,2.599487
2023-02-25T08:45:01.726Z,2.6297
2023-02-25T08:48:26.944Z,2.669983
2023-02-25T08:51:52.213Z,2.669983
2023-02-25T08:55:17.459Z,2.609558
2023-02-25T08:58:42.704Z,2.599487
2023-02-25T09:02:07.954Z,2.599487
2023-02-25T09:05:33.169Z,2.690125
2023-02-25T09:08:58.432Z,2.841187
2023-02-25T09:12:24.854Z,2.972107
2023-02-25T09:15:49.526Z,2.992249
2023-02-25T09:19:15.016Z,3.13324
2023-02-25T09:22:41.126Z,3.294373
2023-02-25T09:26:06.347Z,3.465576
2023-02-25T09:29:31.555Z,3.425293
2023-02-25T09:32:56.961Z,3.183594
2023-02-25T09:36:22.036Z,2.931824
2023-02-25T09:39:47.296Z,2.770691
2023-02-25T09:43:12.467Z,2.790833
2023-02-25T09:46:37.678Z,2.810974
2023-02-25T09:50:02.898Z,2.821045
2023-02-25T09:53:28.151Z,2.790833
2023-02-25T09:56:53.344Z,2.639771
2023-02-25T10:00:18.673Z,2.539062
2023-02-25T10:03:43.858Z,2.690125
2023-02-25T10:07:09.089Z,2.720337
2023-02-25T10:10:34.334Z,2.639771
2023-02-25T10:13:59.519Z,2.690125
2023-02-25T10:17:24.732Z,2.599487
2023-02-25T10:20:50.012Z,2.418213
2023-02-25T10:24:15.267Z,2.357788
2023-02-25T10:27:40.532Z,2.357788
2023-02-25T10:31:05.855Z,2.37793
2023-02-25T10:34:31.085Z,2.307434
2023-02-25T10:37:56.353Z,2.408142
2023-02-25T10:41:21.750Z,2.488708
2023-02-25T10:44:46.820Z,2.609558
2023-02-25T10:48:11.970Z,2.6297
2023-02-25T10:51:37.180Z,2.569275
2023-02-25T10:55:02.369Z,2.448425
2023-02-25T10:58:27.589Z,2.408142
2023-02-25T11:01:52.874Z,2.408142
2023-02-25T11:05:18.001Z,2.428284
2023-02-25T11:08:43.228Z,2.528992
2023-02-25T11:12:08.430Z,2.569275
2023-02-25T11:15:43.986Z,2.528992
2023-02-25T11:18:58.884Z,2.478638
2023-02-25T11:22:24.052Z,2.710266
2023-02-25T11:25:49.259Z,2.609558
2023-02-25T11:29:14.463Z,2.720337
2023-02-25T11:32:39.743Z,2.710266
2023-02-25T11:36:04.895Z,2.659912
2023-02-25T11:39:30.108Z,2.539062
2023-02-25T11:42:55.307Z,2.609558
2023-02-25T11:46:20.548Z,2.710266
2023-02-25T11:49:45.750Z,2.710266
2023-02-25T11:53:11.041Z,2.740479
2023-02-25T11:56:36.239Z,2.921753
2023-02-25T12:00:01.545Z,3.022461
2023-02-25T12:03:26.753Z,3.13324
2023-02-25T12:06:51.961Z,3.13324
2023-02-25T12:10:17.209Z,2.921753
2023-02-25T12:13:42.400Z,2.841187
2023-02-25T12:17:07.614Z,2.841187
2023-02-25T12:20:32.829Z,2.810974
2023-02-25T12:23:58.036Z,2.810974
2023-02-25T12:27:23.246Z,2.851257
2023-02-25T12:30:48.471Z,3.052673
2023-02-25T12:34:13.667Z,3.173523
2023-02-25T12:37:38.885Z,3.113098
2023-02-25T12:41:04.111Z,3.183594
2023-02-25T12:44:29.385Z,3.183594
2023-02-25T12:47:54.592Z,3.244019
2023-02-25T12:51:19.815Z,3.213806
2023-02-25T12:54:45.034Z,3.113098
2023-02-25T12:58:10.251Z,3.082886
2023-02-25T13:01:35.489Z,2.841187
2023-02-25T13:05:00.676Z,2.740479
2023-02-25T13:08:25.888Z,2.821045
2023-02-25T13:12:10.857Z,2.810974
2023-02-25T13:15:16.300Z,2.891541
2023-02-25T13:18:41.527Z,2.901611
2023-02-25T13:22:06.701Z,2.962036
2023-02-25T13:25:31.898Z,3.113098
2023-02-25T13:28:57.094Z,3.284302
2023-02-25T13:32:22.387Z,3.334656
2023-02-25T13:35:47.543Z,3.183594
2023-02-25T13:39:12.719Z,3.153381
2023-02-25T13:42:37.958Z,3.032532
2023-02-25T13:46:03.266Z,2.951965
2023-02-25T13:49:28.425Z,2.740479
2023-02-25T13:52:53.658Z,2.790833
2023-02-25T13:56:18.863Z,2.770691
2023-02-25T13:59:44.154Z,2.710266
2023-02-25T14:03:09.262Z,2.740479
2023-02-25T14:06:34.478Z,2.891541
2023-02-25T14:09:59.708Z,3.103027
2023-02-25T14:13:24.869Z,3.183594
2023-02-25T14:16:51.502Z,3.183594
2023-02-25T14:20:15.326Z,3.203735
2023-02-25T14:23:40.577Z,3.183594
2023-02-25T14:27:05.803Z,3.113098
2023-02-25T14:30:31.069Z,3.062744
2023-02-25T15:05:40.865Z,1.521912
2023-02-25T15:09:06.019Z,1.582336
2023-02-25T15:12:31.604Z,1.683044
2023-02-25T15:15:56.886Z,1.63269
2023-02-25T15:19:22.078Z,1.50177
2023-02-25T15:22:48.378Z,1.552124
2023-02-25T15:26:12.528Z,1.652832
2023-02-25T15:29:37.753Z,1.803894
2023-02-25T15:33:02.973Z,1.87439
2023-02-25T15:36:28.179Z,1.985168
2023-02-25T15:39:55.376Z,1.985168
2023-02-25T15:43:18.605Z,1.954956
2023-02-25T15:46:43.868Z,1.954956
2023-02-25T15:50:09.063Z,2.045593
2023-02-25T15:53:34.292Z,2.116089
2023-02-25T15:56:59.532Z,2.055664
2023-02-25T16:00:24.781Z,1.995239
2023-02-25T16:03:49.973Z,1.985168
2023-02-25T16:07:15.266Z,1.904602
2023-02-25T16:10:40.524Z,1.733398
2023-02-25T16:14:05.754Z,1.63269
2023-02-25T16:17:30.948Z,1.37085
2023-02-25T16:20:56.184Z,1.058655
2023-02-25T16:24:21.406Z,0.978088
2023-02-25T16:27:46.623Z,0.978088
2023-02-25T16:31:11.952Z,0.937805
2023-02-25T16:34:37.062Z,0.907593
2023-02-25T16:38:02.315Z,0.857239
2023-02-25T16:41:33.265Z,0.74646
2023-02-25T16:44:52.734Z,0.61554
2023-02-25T16:48:18.012Z,0.565186
2023-02-25T16:51:43.230Z,0.605469
2023-02-25T16:55:08.951Z,0.696106
2023-02-25T16:58:33.615Z,0.565186
2023-02-25T17:01:58.869Z,0.565186
2023-02-25T17:05:24.088Z,0.645752
2023-02-25T17:08:49.293Z,0.686035
2023-02-25T17:12:14.515Z,0.595398
2023-02-25T17:15:39.831Z,0.595398
2023-02-25T17:19:05.106Z,0.575256
2023-02-25T17:22:30.354Z,0.444336
2023-02-25T17:25:55.574Z,0.333557
2023-02-25T17:29:20.854Z,0.36377
2023-02-25T17:32:46.218Z,0.383911
2023-02-25T17:36:11.771Z,0.383911
2023-02-25T17:39:37.069Z,0.424194
2023-02-25T17:43:02.316Z,0.444336
2023-02-25T17:46:27.862Z,0.424194
2023-02-25T17:49:52.844Z,0.333557
2023-02-25T17:53:18.153Z,0.283203
2023-02-25T17:56:43.561Z,0.323486
2023-02-25T18:00:08.827Z,0.313416
2023-02-25T18:03:34.148Z,0.333557
2023-02-25T18:06:59.468Z,0.293274
2023-02-25T18:10:24.698Z,0.132141
2023-02-25T18:13:50.894Z,-0.028992
2023-02-25T18:17:16.118Z,0.081787
2023-02-25T18:20:41.426Z,0.152283
2023-02-25T18:24:06.695Z,0.293274
2023-02-25T18:27:31.957Z,0.333557
2023-02-25T18:30:57.344Z,0.212708
2023-02-25T18:34:22.480Z,0.212708
2023-02-25T18:37:47.785Z,0.152283
2023-02-25T18:41:13.063Z,0.172424
2023-02-25T18:44:38.338Z,0.112
2023-02-25T18:48:03.669Z,0.041504
2023-02-25T18:51:28.926Z,-0.099487
2023-02-25T18:54:54.204Z,-0.180054
2023-02-25T18:58:19.467Z,-0.079346
2023-02-25T19:01:44.915Z,0.021362
2023-02-25T19:05:10.055Z,0.172424
2023-02-25T19:08:35.330Z,0.152283
2023-02-25T19:12:00.615Z,-0.139771
2023-02-25T19:15:25.868Z,-0.139771
2023-02-25T19:18:51.133Z,-0.109558
2023-02-25T19:22:16.444Z,-0.028992
2023-02-25T19:25:41.730Z,0.071716
2023-02-25T19:29:06.992Z,0.112
2023-02-25T19:32:32.334Z,0.101929
2023-02-25T19:35:57.545Z,0.132141
2023-02-25T19:39:22.873Z,0.101929
2023-02-25T19:42:48.128Z,-0.028992
2023-02-25T19:46:13.468Z,-0.190125
2023-02-25T19:49:38.741Z,-0.462036
2023-02-25T19:53:04.032Z,-0.522461
2023-02-25T19:56:29.316Z,-0.391541
2023-02-25T19:59:54.613Z,-0.371399
2023-02-25T20:03:19.906Z,-0.462036
2023-02-25T20:06:45.251Z,-0.401611
2023-02-25T20:10:10.517Z,-0.472107
2023-02-25T20:13:35.806Z,-0.51239
2023-02-25T20:17:01.080Z,-0.421753
2023-02-25T20:20:26.347Z,-0.522461
2023-02-25T20:23:51.620Z,-0.603027
2023-02-25T20:27:16.866Z,-0.572815
2023-02-25T20:30:42.214Z,-0.542603
2023-02-25T20:34:07.403Z,-0.522461
2023-02-25T20:37:32.673Z,-0.421753
2023-02-25T20:40:58.778Z,-0.431824
2023-02-25T20:44:24.003Z,-0.361328
2023-02-25T20:47:49.347Z,-0.341187
2023-02-25T20:51:14.588Z,-0.492249
2023-02-25T20:54:39.842Z,-0.441895
2023-02-25T20:58:05.139Z,-0.421753
2023-02-25T21:01:30.410Z,-0.290833
2023-02-25T21:04:55.794Z,-0.290833
2023-02-25T21:08:21.039Z,-0.421753
2023-02-25T21:11:46.314Z,-0.371399
2023-02-25T21:15:11.645Z,-0.582886
2023-02-25T21:18:36.898Z,-0.572815
2023-02-25T21:22:02.195Z,-0.51239
2023-02-25T21:25:27.448Z,-0.421753
2023-02-25T21:28:52.745Z,-0.472107
2023-02-25T21:32:18.173Z,-0.51239
2023-02-25T21:35:43.329Z,-0.542603
2023-02-25T21:39:08.631Z,-0.794373
2023-02-25T21:42:33.901Z,-1.01593
2023-02-25T21:45:59.197Z,-1.036072
2023-02-25T21:49:24.458Z,-1.086426
2023-02-25T21:52:49.747Z,-1.166992
2023-02-25T21:56:15.078Z,-1.116638
2023-02-25T21:59:40.328Z,-1.096497
2023-02-25T22:03:05.636Z,-1.005859
2023-02-25T22:06:30.913Z,-1.01593
2023-02-25T22:09:56.207Z,-0.834656
2023-02-25T22:13:21.531Z,-0.854797
2023-02-25T22:16:46.770Z,-0.784302
2023-02-25T22:20:12.039Z,-0.693665
2023-02-25T22:23:37.342Z,-0.693665
2023-02-25T22:27:02.651Z,-0.703735
2023-02-25T22:30:27.935Z,-0.794373
2023-02-25T22:33:53.185Z,-0.824585
2023-02-25T22:37:18.436Z,-0.784302
2023-02-25T22:40:43.736Z,-0.693665
2023-02-25T22:44:09.013Z,-0.693665
2023-02-25T22:47:34.314Z,-1.156921
2023-02-25T22:50:59.564Z,-1.116638
2023-02-25T22:54:24.802Z,-0.965576
2023-02-25T22:57:50.087Z,-1.005859
2023-02-25T23:01:15.374Z,-0.965576
2023-02-25T23:04:40.673Z,-0.905151
2023-02-25T23:08:05.949Z,-0.834656
2023-02-25T23:11:31.231Z,-0.854797
2023-02-25T23:14:56.472Z,-0.693665
2023-02-25T23:18:21.744Z,-0.834656
2023-02-25T23:21:47.061Z,-0.935364
2023-02-25T23:25:12.287Z,-0.975647
2023-02-25T23:28:37.567Z,-0.915222
2023-02-25T23:32:02.986Z,-0.824585
2023-02-25T23:35:28.150Z,-0.834656
2023-02-25T23:38:53.435Z,-0.754089
2023-02-25T23:42:18.661Z,-0.733948
2023-02-25T23:45:46.287Z,-0.794373
2023-02-25T23:49:09.189Z,-0.784302
2023-02-25T23:52:34.482Z,-0.703735
2023-02-25T23:55:59.793Z,-0.673523
2023-02-25T23:59:25.048Z,-0.623169
